createdAt,value
2022-09-12T00:00:37.755Z,1.04
2022-09-12T00:01:37.951Z,1.04
2022-09-12T00:02:38.004Z,1.04
2022-09-12T00:03:38.108Z,1.04
2022-09-12T00:04:38.257Z,1.04
2022-09-12T00:05:38.361Z,1.04
2022-09-12T00:06:38.469Z,1.04
2022-09-12T00:07:38.619Z,1.04
2022-09-12T00:08:38.715Z,1.04
2022-09-12T00:09:38.866Z,1.04
2022-09-12T00:10:39.024Z,1.04
2022-09-12T00:11:39.178Z,1.04
2022-09-12T00:12:39.328Z,1.04
2022-09-12T00:13:41.618Z,1.04
2022-09-12T00:14:39.629Z,1.04
2022-09-12T00:15:39.729Z,1.04
2022-09-12T00:16:39.880Z,1.04
2022-09-12T00:17:39.987Z,1.04
2022-09-12T00:18:40.084Z,1.04
2022-09-12T00:19:40.184Z,1.04
2022-09-12T00:20:40.339Z,1.04
2022-09-12T00:21:40.438Z,1.04
2022-09-12T00:22:40.543Z,1.04
2022-09-12T00:23:40.645Z,1.04
2022-09-12T00:24:40.795Z,1.04
2022-09-12T00:25:40.948Z,1.04
2022-09-12T00:26:41.047Z,1.04
2022-09-12T00:27:41.201Z,1.04
2022-09-12T00:28:41.329Z,1.04
2022-09-12T00:29:41.403Z,1.04
2022-09-12T00:30:41.559Z,1.04
2022-09-12T00:31:41.676Z,1.04
2022-09-12T00:32:41.810Z,1.04
2022-09-12T00:33:41.917Z,1.04
2022-09-12T00:34:42.017Z,1.04
2022-09-12T00:35:42.121Z,1.04
2022-09-12T00:36:42.269Z,1.04
2022-09-12T00:37:42.366Z,1.04
2022-09-12T00:38:42.548Z,1.04
2022-09-12T00:39:42.610Z,1.04
2022-09-12T00:40:42.676Z,1.04
2022-09-12T00:41:42.775Z,1.04
2022-09-12T00:42:42.928Z,1.04
2022-09-12T00:43:43.078Z,1.04
2022-09-12T00:44:43.185Z,1.04
2022-09-12T00:45:43.305Z,1.04
2022-09-12T00:46:43.433Z,1.04
2022-09-12T00:47:43.585Z,1.04
2022-09-12T00:48:43.723Z,1.04
2022-09-12T00:49:43.802Z,1.04
2022-09-12T00:50:43.947Z,1.04
2022-09-12T00:51:44.092Z,1.04
2022-09-12T00:52:44.198Z,1.04
2022-09-12T00:53:44.356Z,1.04
2022-09-12T00:54:44.508Z,1.04
2022-09-12T00:55:44.605Z,1.04
2022-09-12T00:56:44.751Z,1.04
2022-09-12T00:57:44.855Z,1.04
2022-09-12T00:58:45.009Z,1.04
2022-09-12T00:59:45.107Z,1.04
2022-09-12T01:00:45.252Z,1.04
2022-09-12T01:01:45.454Z,1.04
2022-09-12T01:02:45.420Z,1.04
2022-09-12T01:03:45.521Z,1.04
2022-09-12T01:04:45.666Z,1.04
2022-09-12T01:05:45.818Z,1.04
2022-09-12T01:06:45.930Z,1.04
2022-09-12T01:07:46.073Z,1.04
2022-09-12T01:08:46.259Z,1.04
2022-09-12T01:09:46.283Z,1.04
2022-09-12T01:10:46.379Z,1.04
2022-09-12T01:11:46.486Z,1.04
2022-09-12T01:12:46.583Z,1.04
2022-09-12T01:13:46.691Z,1.04
2022-09-12T01:14:46.799Z,1.04
2022-09-12T01:15:46.940Z,1.04
2022-09-12T01:16:47.040Z,1.04
2022-09-12T01:17:47.147Z,1.04
2022-09-12T01:18:47.391Z,1.04
2022-09-12T01:19:47.396Z,1.04
2022-09-12T01:20:47.502Z,1.04
2022-09-12T01:21:47.599Z,1.04
2022-09-12T01:22:47.750Z,1.04
2022-09-12T01:23:47.905Z,1.04
2022-09-12T01:24:48.054Z,1.04
2022-09-12T01:25:48.160Z,1.04
2022-09-12T01:26:48.308Z,1.04
2022-09-12T01:27:48.461Z,1.04
2022-09-12T01:28:48.563Z,1.04
2022-09-12T01:29:48.713Z,1.04
2022-09-12T01:30:48.820Z,1.04
2022-09-12T01:31:48.967Z,1.04
2022-09-12T01:32:49.020Z,1.04
2022-09-12T01:33:49.173Z,1.04
2022-09-12T01:34:49.277Z,1.04
2022-09-12T01:35:49.429Z,1.04
2022-09-12T01:36:49.533Z,1.04
2022-09-12T01:37:49.631Z,1.04
2022-09-12T01:38:49.783Z,1.04
2022-09-12T01:39:49.938Z,1.04
2022-09-12T01:40:50.035Z,1.04
2022-09-12T01:41:50.138Z,1.04
2022-09-12T01:42:50.288Z,1.04
2022-09-12T01:43:50.442Z,1.04
2022-09-12T01:44:50.543Z,1.04
2022-09-12T01:45:50.675Z,1.04
2022-09-12T01:46:50.746Z,1.04
2022-09-12T01:47:50.895Z,1.04
2022-09-12T01:48:51.012Z,1.04
2022-09-12T01:49:51.099Z,1.04
2022-09-12T01:50:51.253Z,1.04
2022-09-12T01:51:51.403Z,1.04
2022-09-12T01:52:51.558Z,1.04
2022-09-12T01:53:51.666Z,1.04
2022-09-12T01:54:51.810Z,1.04
2022-09-12T01:55:51.968Z,1.04
2022-09-12T01:56:52.066Z,1.04
2022-09-12T01:57:52.167Z,1.04
2022-09-12T01:58:52.274Z,1.04
2022-09-12T01:59:52.367Z,1.04
2022-09-12T02:00:52.502Z,1.04
2022-09-12T02:01:52.590Z,1.04
2022-09-12T02:02:52.729Z,1.04
2022-09-12T02:03:52.878Z,1.04
2022-09-12T02:04:53.029Z,1.04
2022-09-12T02:05:53.129Z,1.04
2022-09-12T02:06:53.233Z,1.04
2022-09-12T02:07:53.332Z,1.04
2022-09-12T02:08:53.435Z,1.04
2022-09-12T02:09:53.548Z,1.04
2022-09-12T02:10:53.642Z,1.04
2022-09-12T02:11:53.746Z,1.04
2022-09-12T02:12:53.895Z,1.04
2022-09-12T02:13:53.999Z,1.04
2022-09-12T02:14:54.149Z,1.04
2022-09-12T02:15:54.305Z,1.04
2022-09-12T02:16:54.451Z,1.04
2022-09-12T02:17:54.558Z,1.04
2022-09-12T02:18:54.704Z,1.04
2022-09-12T02:19:54.806Z,1.04
2022-09-12T02:20:54.911Z,1.04
2022-09-12T02:21:55.014Z,1.04
2022-09-12T02:22:55.180Z,1.04
2022-09-12T02:23:55.267Z,1.04
2022-09-12T02:24:55.370Z,1.04
2022-09-12T02:25:55.516Z,1.04
2022-09-12T02:26:55.619Z,1.04
2022-09-12T02:27:55.772Z,1.04
2022-09-12T02:28:55.879Z,1.04
2022-09-12T02:29:56.024Z,1.04
2022-09-12T02:30:56.212Z,1.04
2022-09-12T02:31:56.331Z,1.04
2022-09-12T02:32:56.497Z,1.04
2022-09-12T02:33:56.630Z,1.04
2022-09-12T02:34:56.741Z,1.04
2022-09-12T02:35:56.856Z,1.04
2022-09-12T02:36:56.997Z,1.04
2022-09-12T02:37:57.090Z,1.04
2022-09-12T02:38:57.241Z,1.04
2022-09-12T02:39:57.407Z,1.04
2022-09-12T02:40:57.550Z,1.04
2022-09-12T02:41:57.700Z,1.04
2022-09-12T02:42:57.850Z,1.04
2022-09-12T02:43:57.952Z,1.04
2022-09-12T02:44:58.104Z,1.04
2022-09-12T02:45:58.234Z,1.04
2022-09-12T02:46:58.354Z,1.04
2022-09-12T02:47:58.459Z,1.04
2022-09-12T02:48:58.562Z,1.04
2022-09-12T02:49:58.711Z,1.04
2022-09-12T02:50:58.814Z,1.04
2022-09-12T02:51:58.918Z,1.04
2022-09-12T02:52:59.016Z,1.04
2022-09-12T02:53:59.178Z,1.04
2022-09-12T02:54:59.332Z,1.04
2022-09-12T02:55:59.425Z,1.04
2022-09-12T02:56:59.525Z,1.04
2022-09-12T02:57:59.625Z,1.04
2022-09-12T02:58:59.753Z,1.04
2022-09-12T02:59:59.880Z,1.04
2022-09-12T03:00:59.994Z,1.04
2022-09-12T03:02:00.194Z,1.04
2022-09-12T03:03:00.188Z,1.04
2022-09-12T03:04:00.295Z,1.04
2022-09-12T03:05:00.394Z,1.04
2022-09-12T03:06:00.493Z,1.04
2022-09-12T03:07:00.649Z,1.04
2022-09-12T03:08:00.746Z,1.04
2022-09-12T03:09:00.895Z,1.04
2022-09-12T03:10:01.047Z,1.04
2022-09-12T03:11:01.196Z,1.04
2022-09-12T03:12:01.350Z,1.04
2022-09-12T03:13:01.456Z,1.04
2022-09-12T03:14:01.556Z,1.04
2022-09-12T03:15:01.767Z,1.04
2022-09-12T03:16:01.758Z,1.04
2022-09-12T03:17:01.865Z,1.04
2022-09-12T03:18:02.018Z,1.04
2022-09-12T03:19:02.114Z,1.04
2022-09-12T03:20:02.263Z,1.04
2022-09-12T03:21:02.372Z,1.04
2022-09-12T03:22:02.469Z,1.04
2022-09-12T03:23:02.626Z,1.04
2022-09-12T03:24:02.777Z,1.04
2022-09-12T03:25:02.883Z,1.04
2022-09-12T03:26:03.031Z,1.04
2022-09-12T03:27:03.177Z,1.04
2022-09-12T03:28:03.278Z,1.04
2022-09-12T03:29:03.380Z,1.04
2022-09-12T03:30:03.484Z,1.04
2022-09-12T03:31:03.599Z,1.04
2022-09-12T03:32:03.735Z,1.04
2022-09-12T03:33:03.844Z,1.04
2022-09-12T03:34:03.947Z,1.04
2022-09-12T03:35:04.044Z,1.04
2022-09-12T03:36:04.200Z,1.04
2022-09-12T03:37:04.354Z,1.04
2022-09-12T03:38:04.500Z,1.04
2022-09-12T03:39:04.652Z,1.04
2022-09-12T03:40:04.847Z,1.04
2022-09-12T03:41:04.904Z,1.04
2022-09-12T03:42:05.056Z,1.04
2022-09-12T03:43:05.208Z,1.04
2022-09-12T03:44:05.312Z,1.04
2022-09-12T03:45:05.414Z,1.04
2022-09-12T03:46:05.552Z,1.04
2022-09-12T03:47:09.279Z,1.04
2022-09-12T03:48:05.817Z,1.04
2022-09-12T03:49:05.973Z,1.04
2022-09-12T03:50:06.076Z,1.04
2022-09-12T03:51:06.232Z,1.04
2022-09-12T03:52:06.375Z,1.04
2022-09-12T03:53:06.527Z,1.04
2022-09-12T03:54:06.632Z,1.04
2022-09-12T03:55:06.786Z,1.04
2022-09-12T03:56:06.917Z,1.04
2022-09-12T03:57:07.037Z,1.04
2022-09-12T03:58:07.186Z,1.04
2022-09-12T03:59:07.343Z,1.04
2022-09-12T04:00:07.489Z,1.04
2022-09-12T04:01:07.653Z,1.04
2022-09-12T04:02:07.716Z,1.04
2022-09-12T04:03:07.845Z,2
2022-09-12T04:04:07.946Z,2
2022-09-12T04:05:08.050Z,2
2022-09-12T04:06:08.150Z,2
2022-09-12T04:07:08.257Z,3.04
2022-09-12T04:08:08.403Z,3.04
2022-09-12T04:09:08.510Z,4
2022-09-12T04:10:09.673Z,4
2022-09-12T04:11:08.761Z,5.04
2022-09-12T04:12:08.860Z,6
2022-09-12T04:13:09.027Z,7.04
2022-09-12T04:14:09.116Z,8
2022-09-12T04:15:09.237Z,10
2022-09-12T04:16:09.408Z,12
2022-09-12T04:17:09.471Z,15.04
2022-09-12T04:18:09.574Z,18
2022-09-12T04:19:09.675Z,22
2022-09-12T04:20:09.827Z,25.04
2022-09-12T04:21:09.980Z,29.04
2022-09-12T04:22:10.089Z,36
2022-09-12T04:23:10.195Z,43.04
2022-09-12T04:24:10.336Z,51.04
2022-09-12T04:25:10.486Z,59.04
2022-09-12T04:26:10.584Z,67.04
2022-09-12T04:27:10.742Z,75.04
2022-09-12T04:28:10.889Z,88
2022-09-12T04:29:10.993Z,103.04
2022-09-12T04:30:11.098Z,118
2022-09-12T04:31:11.248Z,136
2022-09-12T04:32:11.352Z,161.04
2022-09-12T04:33:11.498Z,185.12
2022-09-12T04:34:11.658Z,209.12
2022-09-12T04:35:11.806Z,243.04
2022-09-12T04:36:11.909Z,272
2022-09-12T04:37:12.010Z,300
2022-09-12T04:38:12.161Z,342.08
2022-09-12T04:39:12.276Z,373.12
2022-09-12T04:40:12.406Z,413.12
2022-09-12T04:41:12.516Z,447.04
2022-09-12T04:42:12.622Z,478.08
2022-09-12T04:43:14.614Z,510.08
2022-09-12T04:44:12.870Z,553.28
2022-09-12T04:45:12.974Z,594.24
2022-09-12T04:46:13.117Z,633.28
2022-09-12T04:47:13.177Z,677.12
2022-09-12T04:48:13.328Z,709.12
2022-09-12T04:49:13.428Z,745.6
2022-09-12T04:50:13.582Z,777.6
2022-09-12T04:51:13.736Z,804.48
2022-09-12T04:52:13.883Z,834.56
2022-09-12T04:53:14.042Z,876.16
2022-09-12T04:54:14.142Z,912
2022-09-12T04:55:14.298Z,953.6
2022-09-12T04:56:14.450Z,1004.16
2022-09-12T04:57:14.548Z,1050.24
2022-09-12T04:58:14.645Z,1093.12
2022-09-12T04:59:14.798Z,1134.08
2022-09-12T05:00:14.954Z,1195.52
2022-09-12T05:01:15.075Z,1242.24
2022-09-12T05:02:15.192Z,1287.04
2022-09-12T05:03:15.256Z,1431.04
2022-09-12T05:04:15.409Z,1500.16
2022-09-12T05:05:15.521Z,1600
2022-09-12T05:06:15.667Z,1683.2
2022-09-12T05:07:15.776Z,1756.16
2022-09-12T05:08:15.911Z,1824
2022-09-12T05:09:16.024Z,1893.12
2022-09-12T05:10:16.122Z,1934.08
2022-09-12T05:11:16.221Z,1879.04
2022-09-12T05:12:16.326Z,1579.52
2022-09-12T05:13:16.427Z,1319.68
2022-09-12T05:14:16.541Z,1126.4
2022-09-12T05:15:16.631Z,1067.52
2022-09-12T05:16:16.805Z,1099.52
2022-09-12T05:17:16.935Z,1175.04
2022-09-12T05:18:17.041Z,1286.4
2022-09-12T05:19:17.143Z,1516.8
2022-09-12T05:20:17.296Z,1661.44
2022-09-12T05:21:17.445Z,1898.24
2022-09-12T05:22:17.554Z,2145.28
2022-09-12T05:23:17.644Z,2406.4
2022-09-12T05:24:17.753Z,2557.44
2022-09-12T05:25:17.899Z,2652.16
2022-09-12T05:26:17.999Z,2693.12
2022-09-12T05:27:18.098Z,2749.44
2022-09-12T05:28:18.259Z,2780.16
2022-09-12T05:29:18.354Z,2767.36
2022-09-12T05:30:18.504Z,2698.24
2022-09-12T05:31:18.604Z,2626.56
2022-09-12T05:32:18.759Z,2547.2
2022-09-12T05:33:22.036Z,2507.52
2022-09-12T05:34:18.964Z,2442.24
2022-09-12T05:35:19.119Z,2321.92
2022-09-12T05:36:19.217Z,2260.48
2022-09-12T05:37:19.320Z,2264.32
2022-09-12T05:38:19.419Z,2325.76
2022-09-12T05:39:19.520Z,2344.96
2022-09-12T05:40:19.627Z,2301.44
2022-09-12T05:41:23.076Z,2161.92
2022-09-12T05:42:19.876Z,2041.6
2022-09-12T05:43:20.035Z,1984
2022-09-12T05:44:20.131Z,2031.36
2022-09-12T05:45:20.245Z,2142.72
2022-09-12T05:46:20.340Z,2283.52
2022-09-12T05:47:20.494Z,2352.64
2022-09-12T05:48:20.641Z,2393.6
2022-09-12T05:49:20.789Z,2474.24
2022-09-12T05:50:20.890Z,2557.44
2022-09-12T05:51:20.992Z,2672.64
2022-09-12T05:52:21.094Z,2923.52
2022-09-12T05:53:21.203Z,3374.08
2022-09-12T05:54:21.355Z,3776
2022-09-12T05:55:21.449Z,4275.2
2022-09-12T05:56:21.634Z,5020.16
2022-09-12T05:57:21.758Z,5575.68
2022-09-12T05:58:21.871Z,5795.84
2022-09-12T05:59:22.021Z,5913.6
2022-09-12T06:00:22.163Z,6087.68
2022-09-12T06:01:22.283Z,6266.88
2022-09-12T06:02:22.422Z,6328.32
2022-09-12T06:03:22.560Z,6487.04
2022-09-12T06:04:22.734Z,6799.36
2022-09-12T06:05:22.828Z,7357.44
2022-09-12T06:06:22.924Z,8304.64
2022-09-12T06:07:23.031Z,8535.04
2022-09-12T06:08:23.136Z,8514.56
2022-09-12T06:09:23.273Z,8483.84
2022-09-12T06:10:23.431Z,8453.12
2022-09-12T06:11:23.585Z,9006.08
2022-09-12T06:12:23.685Z,10014.72
2022-09-12T06:13:23.792Z,10470.399
2022-09-12T06:14:23.941Z,10296.319
2022-09-12T06:15:24.036Z,10649.6
2022-09-12T06:16:24.161Z,11079.68
2022-09-12T06:17:24.287Z,12134.399
2022-09-12T06:18:24.439Z,12451.84
2022-09-12T06:19:24.541Z,11571.2
2022-09-12T06:20:24.648Z,10762.24
2022-09-12T06:21:24.800Z,10030.08
2022-09-12T06:22:24.909Z,9400.319
2022-09-12T06:23:25.056Z,8816.64
2022-09-12T06:24:25.158Z,8151.04
2022-09-12T06:25:25.259Z,7336.96
2022-09-12T06:26:25.374Z,6901.76
2022-09-12T06:27:25.466Z,6558.72
2022-09-12T06:28:25.614Z,6236.16
2022-09-12T06:29:25.712Z,5178.88
2022-09-12T06:30:26.054Z,4710.4
2022-09-12T06:31:25.966Z,4608
2022-09-12T06:32:26.071Z,4802.56
2022-09-12T06:33:26.207Z,5076.48
2022-09-12T06:34:26.278Z,5345.28
2022-09-12T06:35:26.378Z,5683.2
2022-09-12T06:36:26.524Z,6016
2022-09-12T06:37:26.681Z,6256.64
2022-09-12T06:38:26.833Z,6348.8
2022-09-12T06:39:26.942Z,6292.48
2022-09-12T06:40:27.086Z,6128.64
2022-09-12T06:41:27.239Z,6036.48
2022-09-12T06:42:27.339Z,6016
2022-09-12T06:43:27.438Z,5898.24
2022-09-12T06:44:27.538Z,5616.64
2022-09-12T06:45:27.644Z,5381.12
2022-09-12T06:46:27.744Z,5219.84
2022-09-12T06:47:27.847Z,5127.68
2022-09-12T06:48:27.947Z,5242.88
2022-09-12T06:49:28.107Z,5314.56
2022-09-12T06:50:28.197Z,5370.88
2022-09-12T06:51:28.305Z,5422.08
2022-09-12T06:52:28.458Z,5411.84
2022-09-12T06:53:28.616Z,5427.2
2022-09-12T06:54:28.709Z,5565.44
2022-09-12T06:55:28.807Z,5734.4
2022-09-12T06:56:28.915Z,6476.8
2022-09-12T06:57:29.016Z,6220.8
2022-09-12T06:58:29.119Z,6712.32
2022-09-12T06:59:29.268Z,7552
2022-09-12T07:00:29.419Z,8821.76
2022-09-12T07:01:29.622Z,10024.96
2022-09-12T07:02:29.653Z,11284.479
2022-09-12T07:03:29.722Z,12615.68
2022-09-12T07:04:29.832Z,14489.6
2022-09-12T07:05:29.977Z,15800.319
2022-09-12T07:06:30.078Z,17295.36
2022-09-12T07:07:30.231Z,18124.8
2022-09-12T07:08:30.380Z,19138.56
2022-09-12T07:09:30.491Z,21073.92
2022-09-12T07:10:30.584Z,23900.16
2022-09-12T07:11:30.738Z,42721.28
2022-09-12T07:12:30.839Z,33013.76
2022-09-12T07:13:30.992Z,33320.96
2022-09-12T07:14:31.093Z,23203.84
2022-09-12T07:15:31.195Z,24535.04
2022-09-12T07:16:31.480Z,30863.36
2022-09-12T07:17:31.504Z,26624
2022-09-12T07:18:31.613Z,25661.44
2022-09-12T07:19:31.721Z,33075.2
2022-09-12T07:20:31.859Z,49233.92
2022-09-12T07:21:31.959Z,51568.64
2022-09-12T07:22:32.059Z,32706.56
2022-09-12T07:23:32.211Z,52346.88
2022-09-12T07:24:32.312Z,45834.24
2022-09-12T07:25:32.463Z,41533.44
2022-09-12T07:26:32.574Z,37560.32
2022-09-12T07:27:32.718Z,31846.4
2022-09-12T07:28:32.816Z,23592.96
2022-09-12T07:29:36.783Z,27136
2022-09-12T07:30:33.109Z,50626.56
2022-09-12T07:31:33.222Z,37785.6
2022-09-12T07:32:33.393Z,29655.04
2022-09-12T07:33:33.505Z,56156.16
2022-09-12T07:34:33.587Z,53370.88
2022-09-12T07:35:33.690Z,60579.84
2022-09-12T07:36:33.788Z,59228.16
2022-09-12T07:37:33.883Z,57712.64
2022-09-12T07:38:33.996Z,60989.44
2022-09-12T07:39:34.139Z,49807.36
2022-09-12T07:40:34.246Z,29532.16
2022-09-12T07:41:34.402Z,33607.68
2022-09-12T07:42:34.553Z,44195.84
2022-09-12T07:43:34.692Z,63488
2022-09-12T07:44:34.754Z,66232.32
2022-09-12T07:45:34.870Z,64389.12
2022-09-12T07:46:35.006Z,66232.32
2022-09-12T07:47:35.104Z,67665.92
2022-09-12T07:48:35.257Z,67829.76
2022-09-12T07:49:35.360Z,62341.12
2022-09-12T07:50:35.459Z,31477.76
2022-09-12T07:51:35.569Z,31989.76
2022-09-12T07:52:35.661Z,63160.32
2022-09-12T07:53:35.775Z,65945.6
2022-09-12T07:54:35.875Z,51445.76
2022-09-12T07:55:36.223Z,71843.84
2022-09-12T07:56:39.061Z,69058.56
2022-09-12T07:57:36.477Z,58654.72
2022-09-12T07:58:36.597Z,38707.2
2022-09-12T07:59:51.822Z,80404.48
2022-09-12T08:00:36.825Z,86261.76
2022-09-12T08:01:37.030Z,87736.32
2022-09-12T08:02:37.091Z,88064
2022-09-12T08:03:37.131Z,84377.6
2022-09-12T08:04:37.234Z,63447.04
2022-09-12T08:05:37.332Z,44441.6
2022-09-12T08:06:37.495Z,43130.88
2022-09-12T08:07:37.621Z,37416.96
2022-09-12T08:08:37.700Z,34344.96
2022-09-12T08:09:37.796Z,33218.56
2022-09-12T08:10:37.952Z,33587.2
2022-09-12T08:11:38.047Z,35000.32
2022-09-12T08:12:38.203Z,33812.48
2022-09-12T08:13:38.302Z,36208.64
2022-09-12T08:14:38.405Z,44769.28
2022-09-12T08:15:38.522Z,36843.52
2022-09-12T08:16:38.661Z,45916.16
2022-09-12T08:17:38.765Z,92815.36
2022-09-12T08:18:38.864Z,97566.72
2022-09-12T08:19:39.016Z,97812.48
2022-09-12T08:20:39.125Z,83025.92
2022-09-12T08:21:39.229Z,67870.72
2022-09-12T08:22:39.319Z,103956.48
2022-09-12T08:23:39.422Z,96911.36
2022-09-12T08:24:39.526Z,56238.08
2022-09-12T08:25:39.688Z,66478.08
2022-09-12T08:26:39.826Z,49602.56
2022-09-12T08:27:39.928Z,37191.68
2022-09-12T08:28:40.038Z,36085.76
2022-09-12T08:29:40.129Z,36536.32
2022-09-12T08:30:40.307Z,38707.2
2022-09-12T08:31:40.399Z,47185.92
2022-09-12T08:32:40.492Z,94208
2022-09-12T08:33:40.589Z,92241.91
2022-09-12T08:34:40.703Z,39874.56
2022-09-12T08:35:40.802Z,30187.52
2022-09-12T08:36:40.947Z,28016.64
2022-09-12T08:37:41.094Z,26030.08
2022-09-12T08:38:41.204Z,25149.44
2022-09-12T08:39:41.329Z,24739.84
2022-09-12T08:40:41.402Z,24801.28
2022-09-12T08:41:41.504Z,26705.92
2022-09-12T08:42:41.600Z,85032.96
2022-09-12T08:43:41.708Z,45629.44
2022-09-12T08:44:41.808Z,30699.52
2022-09-12T08:45:41.936Z,52428.8
2022-09-12T08:46:42.021Z,73687.04
2022-09-12T08:47:42.174Z,94617.6
2022-09-12T08:48:42.270Z,93143.04
2022-09-12T08:49:42.375Z,96010.23
2022-09-12T08:50:44.679Z,96501.76
2022-09-12T08:51:42.574Z,96911.36
2022-09-12T08:52:42.672Z,96829.44
2022-09-12T08:53:42.774Z,95027.2
2022-09-12T08:54:42.877Z,70328.32
2022-09-12T08:55:43.027Z,93061.12
2022-09-12T08:56:43.136Z,91914.23
2022-09-12T08:57:43.283Z,88064
2022-09-12T08:58:43.439Z,93634.55
2022-09-12T08:59:43.545Z,94289.91
2022-09-12T09:00:43.644Z,95682.55
2022-09-12T09:01:43.760Z,25088
2022-09-12T09:02:44.003Z,96583.68
2022-09-12T09:03:44.053Z,97484.8
2022-09-12T09:04:44.143Z,56770.56
2022-09-12T09:05:44.296Z,27320.32
2022-09-12T09:06:44.447Z,25313.28
2022-09-12T09:07:44.570Z,29962.24
2022-09-12T09:08:44.699Z,86507.52
2022-09-12T09:09:44.807Z,102645.76
2022-09-12T09:10:44.905Z,105594.88
2022-09-12T09:11:45.006Z,111001.59
2022-09-12T09:12:45.258Z,111165.44
2022-09-12T09:13:45.363Z,115998.72
2022-09-12T09:14:45.465Z,112476.16
2022-09-12T09:15:45.612Z,92979.2
2022-09-12T09:16:45.672Z,61317.12
2022-09-12T09:17:45.820Z,61644.8
2022-09-12T09:18:45.971Z,94699.52
2022-09-12T09:19:50.089Z,51732.48
2022-09-12T09:20:46.226Z,30126.08
2022-09-12T09:21:46.395Z,28200.96
2022-09-12T09:22:46.533Z,26767.36
2022-09-12T09:23:46.777Z,23838.72
2022-09-12T09:24:46.748Z,20817.92
2022-09-12T09:25:46.840Z,19169.28
2022-09-12T09:26:46.982Z,17571.84
2022-09-12T09:27:47.085Z,16445.44
2022-09-12T09:28:47.190Z,15237.12
2022-09-12T09:29:47.290Z,14264.319
2022-09-12T09:30:47.486Z,13434.88
2022-09-12T09:31:47.543Z,12861.439
2022-09-12T09:32:47.719Z,12482.56
2022-09-12T09:33:47.956Z,12175.359
2022-09-12T09:34:47.946Z,11642.88
2022-09-12T09:35:48.051Z,11468.8
2022-09-12T09:36:48.154Z,11356.16
2022-09-12T09:37:48.309Z,11653.12
2022-09-12T09:38:48.455Z,11970.56
2022-09-12T09:39:48.622Z,12574.72
2022-09-12T09:40:48.710Z,14202.88
2022-09-12T09:41:48.858Z,15605.76
2022-09-12T09:42:49.019Z,16865.28
2022-09-12T09:43:49.163Z,17786.88
2022-09-12T09:44:49.283Z,18298.88
2022-09-12T09:45:49.429Z,19118.08
2022-09-12T09:46:49.480Z,19804.16
2022-09-12T09:47:49.621Z,20418.56
2022-09-12T09:48:49.722Z,21217.28
2022-09-12T09:49:49.827Z,23552
2022-09-12T09:50:49.928Z,28426.24
2022-09-12T09:51:50.081Z,31928.32
2022-09-12T09:52:50.234Z,82493.44
2022-09-12T09:53:50.341Z,89948.16
2022-09-12T09:54:50.492Z,85032.96
2022-09-12T09:55:50.586Z,33402.88
2022-09-12T09:56:50.701Z,68362.24
2022-09-12T09:57:50.840Z,103464.96
2022-09-12T09:58:50.948Z,106905.59
2022-09-12T09:59:51.045Z,108789.76
2022-09-12T10:00:54.889Z,109608.96
2022-09-12T10:01:51.344Z,111656.96
2022-09-12T10:02:51.508Z,111656.96
2022-09-12T10:03:51.609Z,112721.91
2022-09-12T10:04:51.700Z,116244.48
2022-09-12T10:05:51.812Z,101908.48
2022-09-12T10:06:51.964Z,34938.88
2022-09-12T10:07:52.062Z,33587.2
2022-09-12T10:08:52.210Z,100106.23
2022-09-12T10:09:52.370Z,95764.48
2022-09-12T10:10:52.511Z,42803.2
2022-09-12T10:11:52.613Z,35921.92
2022-09-12T10:12:52.717Z,47636.48
2022-09-12T10:13:52.917Z,46612.48
2022-09-12T10:14:52.988Z,37376
2022-09-12T10:15:53.229Z,29245.44
2022-09-12T10:16:53.234Z,31457.28
2022-09-12T10:17:53.329Z,30576.64
2022-09-12T10:18:53.429Z,30371.84
2022-09-12T10:20:04.778Z,30617.6
2022-09-12T10:20:53.635Z,31907.84
2022-09-12T10:21:53.732Z,35573.76
2022-09-12T10:22:53.838Z,46325.76
2022-09-12T10:23:53.987Z,108544
2022-09-12T10:24:54.091Z,111493.12
2022-09-12T10:25:54.194Z,75776
2022-09-12T10:26:56.686Z,105840.64
2022-09-12T10:27:54.397Z,46858.24
2022-09-12T10:28:54.505Z,36024.32
2022-09-12T10:29:54.656Z,35328
2022-09-12T10:30:54.847Z,37908.48
2022-09-12T10:31:54.901Z,52060.16
2022-09-12T10:32:55.003Z,63037.44
2022-09-12T10:33:55.107Z,101171.2
2022-09-12T10:34:55.259Z,31109.12
2022-09-12T10:35:55.370Z,29286.4
2022-09-12T10:36:55.469Z,39567.36
2022-09-12T10:37:55.629Z,89784.32
2022-09-12T10:38:55.719Z,107315.2
2022-09-12T10:39:55.827Z,106086.4
2022-09-12T10:40:55.980Z,101580.8
2022-09-12T10:41:56.127Z,105594.88
2022-09-12T10:42:56.230Z,105512.96
2022-09-12T10:43:56.375Z,105594.88
2022-09-12T10:44:56.528Z,106004.48
2022-09-12T10:45:56.709Z,106659.84
2022-09-12T10:46:56.778Z,107069.44
2022-09-12T10:47:56.884Z,100515.84
2022-09-12T10:48:56.995Z,102727.68
2022-09-12T10:49:57.087Z,101171.2
2022-09-12T10:50:57.185Z,105676.8
2022-09-12T10:51:57.412Z,105103.36
2022-09-12T10:52:57.495Z,105840.64
2022-09-12T10:53:57.590Z,103710.72
2022-09-12T10:54:57.744Z,104202.23
2022-09-12T10:55:57.848Z,102481.91
2022-09-12T10:56:57.955Z,102563.84
2022-09-12T10:57:58.101Z,103628.8
2022-09-12T10:58:58.204Z,104284.16
2022-09-12T10:59:58.311Z,105021.44
2022-09-12T11:00:58.408Z,104693.76
2022-09-12T11:01:58.507Z,104775.68
2022-09-12T11:02:58.616Z,101335.04
2022-09-12T11:03:58.762Z,97730.55
2022-09-12T11:04:58.914Z,103137.28
2022-09-12T11:05:59.011Z,105922.55
2022-09-12T11:06:59.117Z,108871.68
2022-09-12T11:07:59.267Z,110346.23
2022-09-12T11:08:59.375Z,110264.32
2022-09-12T11:09:59.475Z,111001.59
2022-09-12T11:10:59.585Z,112230.4
2022-09-12T11:11:59.726Z,112230.4
2022-09-12T11:12:59.877Z,110673.91
2022-09-12T11:13:59.980Z,105840.64
2022-09-12T11:15:00.135Z,103628.8
2022-09-12T11:16:00.258Z,107315.2
2022-09-12T11:17:00.385Z,102891.52
2022-09-12T11:18:00.490Z,104202.23
2022-09-12T11:19:00.641Z,108871.68
2022-09-12T11:20:00.958Z,105431.04
2022-09-12T11:21:01.100Z,104120.32
2022-09-12T11:22:01.193Z,108871.68
2022-09-12T11:23:01.296Z,110510.08
2022-09-12T11:24:01.401Z,100352
2022-09-12T11:25:01.553Z,50421.76
2022-09-12T11:26:01.698Z,106823.68
2022-09-12T11:27:01.804Z,54968.32
2022-09-12T11:28:01.901Z,96747.52
2022-09-12T11:29:02.007Z,53043.2
2022-09-12T11:30:02.110Z,53452.8
2022-09-12T11:31:02.287Z,27832.32
2022-09-12T11:32:02.410Z,25354.24
2022-09-12T11:33:02.566Z,23244.8
2022-09-12T11:34:02.666Z,22159.36
2022-09-12T11:35:02.781Z,23101.44
2022-09-12T11:36:02.923Z,21585.92
2022-09-12T11:37:04.687Z,22671.36
2022-09-12T11:38:03.124Z,25128.96
2022-09-12T11:39:03.226Z,25292.8
2022-09-12T11:40:03.355Z,24494.08
2022-09-12T11:41:03.438Z,24432.64
2022-09-12T11:42:03.588Z,24555.52
2022-09-12T11:43:03.682Z,27627.52
2022-09-12T11:44:03.788Z,27627.52
2022-09-12T11:45:03.885Z,25313.28
2022-09-12T11:46:04.019Z,26009.6
2022-09-12T11:47:04.144Z,29859.84
2022-09-12T11:48:04.292Z,35266.56
2022-09-12T11:49:04.446Z,82042.88
2022-09-12T11:50:04.600Z,84787.2
2022-09-12T11:51:04.751Z,85442.55
2022-09-12T11:52:04.850Z,84951.04
2022-09-12T11:53:04.953Z,66150.4
2022-09-12T11:54:05.051Z,46776.32
2022-09-12T11:55:05.157Z,36311.04
2022-09-12T11:56:05.260Z,42024.96
2022-09-12T11:57:05.414Z,26091.52
2022-09-12T11:58:05.561Z,24780.8
2022-09-12T11:59:05.664Z,27402.24
2022-09-12T12:00:05.814Z,27013.12
2022-09-12T12:01:05.967Z,29388.8
2022-09-12T12:02:06.150Z,32174.08
2022-09-12T12:03:06.267Z,28078.08
2022-09-12T12:04:06.383Z,26398.72
2022-09-12T12:05:06.483Z,27217.92
2022-09-12T12:06:06.588Z,76103.68
2022-09-12T12:07:06.680Z,79708.16
2022-09-12T12:08:06.825Z,61030.4
2022-09-12T12:09:06.928Z,76308.48
2022-09-12T12:10:07.113Z,40427.52
2022-09-12T12:11:07.244Z,92487.68
2022-09-12T12:12:07.426Z,80527.36
2022-09-12T12:13:10.812Z,81797.12
2022-09-12T12:14:07.639Z,80896
2022-09-12T12:15:07.788Z,81387.52
2022-09-12T12:16:07.920Z,81387.52
2022-09-12T12:17:08.051Z,84623.36
2022-09-12T12:18:08.147Z,85688.32
2022-09-12T12:19:10.660Z,87244.8
2022-09-12T12:20:08.906Z,88309.76
2022-09-12T12:21:08.553Z,87736.32
2022-09-12T12:22:08.709Z,89047.04
2022-09-12T12:23:08.854Z,87244.8
2022-09-12T12:24:08.959Z,84869.12
2022-09-12T12:25:09.096Z,82452.48